Flight Track Log - Related Links

Times and Time Zones

All times are in EDT time to prevent confusion due to time zone crossing. See the KAP17 flight status page for this flight to view local times or setup timezone preferences in your user account.

Time Position Orientation Groundspeed Altitude Reporting Facility
EDT Latitude Longitude Course Direction KTS MPH feet Rate Location/Type
Fri 12:17:20 PM 42.3833 -71.0000 324° Northwest 136 157 400  Level KA90
Fri 12:18:08 PM 42.4000 -71.0167 324° Northwest 113 130 1,200 911 Climbing KA90
Fri 12:19:12 PM 42.4333 -71.0333 340° North 109 125 2,100 763 Climbing KA90
Fri 12:20:06 PM 42.4667 -71.0500 340° North 123 142 2,700 632 Climbing KA90
Fri 12:21:06 PM 42.5000 -71.0833 324° Northwest 134 154 3,300 645 Climbing KA90
Fri 12:22:07 PM 42.5333 -71.1000 340° North 128 147 4,000 656 Climbing KA90
Fri 12:23:14 PM 42.5667 -71.1333 324° Northwest 127 146 4,700 496 Climbing KA90
Fri 12:24:08 PM 42.5833 -71.1500 324° Northwest 133 153 5,000 214 Climbing KA90
Fri 12:25:06 PM 42.6333 -71.1833 334° Northwest 153 176 5,100 454 Climbing KA90
Fri 12:26:07 PM 42.6667 -71.2000 340° North 134 154 5,900 446 Climbing KA90
Fri 12:27:07 PM 42.7000 -71.2333 324° Northwest 146 168 6,000 104 Climbing KA90
Fri 12:28:02 PM 42.7333 -71.2500 340° North 151 174 6,100  Climbing KA90
Fri 12:29:02 PM 42.7667 -71.2833 324° Northwest 149 171 6,000  Descending KA90
Fri 12:30:06 PM 42.8000 -71.3333 312° West 151 174 6,100 50 Climbing KA90
Fri 12:31:01 PM 42.8333 -71.3500 340° North 151 174 6,100 -52 Level KA90
Fri 12:32:01 PM 42.8667 -71.4000 312° West 152 175 6,000 -50 Descending KA90
Fri 12:33:01 PM 42.8833 -71.4333 304° West 153 176 6,000  Level KA90
Fri 12:34:02 PM 42.9167 -71.4667 324° Northwest 149 171 6,000 47 Level KA90
Fri 12:35:09 PM 42.9500 -71.5167 312° West 149 171 6,100 48 Climbing KA90
Fri 12:36:06 PM 42.9833 -71.5500 324° Northwest 149 171 6,100  Level KA90
Fri 12:37:06 PM 43.0167 -71.5833 324° Northwest 150 173 6,100 -50 Level KA90
Fri 12:38:07 PM 43.0500 -71.6167 324° Northwest 152 175 6,000  Descending KA90
Fri 12:39:02 PM 43.0833 -71.6500 324° Northwest 151 174 6,100 49 Climbing KA90
Fri 12:40:09 PM 43.1167 -71.7000 312° West 152 175 6,100  Level KA90
Fri 12:41:27 PM 43.1547 -71.7486 317° Northwest 171 197 6,100  Level Boston Center
Fri 12:42:27 PM 43.1906 -71.7908 319° Northwest 159 183 6,100  Level Boston Center
Fri 12:43:27 PM 43.2200 -71.8247 320° Northwest 159 183 6,100  Level Boston Center
Fri 12:44:27 PM 43.2575 -71.8700 319° Northwest 159 183 6,100  Level Boston Center
Fri 12:45:27 PM 43.2847 -71.9011 320° Northwest 159 183 6,100  Level Boston Center
Fri 12:46:27 PM 43.3225 -71.9436 321° Northwest 159 183 6,100  Level Boston Center
Fri 12:47:27 PM 43.3519 -71.9775 320° Northwest 159 183 6,100  Level Boston Center

Login

Don't have an account? Register now (free) for customized features, flight alerts, and more!